createdAt,value
2023-05-31T00:02:04.623Z,20.50
2023-05-31T00:04:32.190Z,20.00
2023-05-31T00:06:59.659Z,19.00
2023-05-31T00:09:31.637Z,19.75
2023-05-31T00:11:58.691Z,23.25
2023-05-31T00:14:26.170Z,18.50
2023-05-31T00:17:24.026Z,21.00
2023-05-31T00:19:41.480Z,24.50
2023-05-31T00:22:08.842Z,23.00
2023-05-31T00:24:36.370Z,34.25
2023-05-31T00:27:03.491Z,18.25
2023-05-31T00:29:30.887Z,21.75
2023-05-31T00:31:57.983Z,24.75
2023-05-31T00:34:25.515Z,21.00
2023-05-31T00:36:52.534Z,10.25
2023-05-31T00:39:19.963Z,18.75
2023-05-31T00:41:46.941Z,18.75
2023-05-31T00:44:14.465Z,17.50
2023-05-31T00:46:42.100Z,17.00
2023-05-31T00:49:09.767Z,20.25
2023-05-31T00:51:37.722Z,16.25
2023-05-31T00:54:05.242Z,20.50
2023-05-31T00:56:32.810Z,20.75
2023-05-31T00:59:01.543Z,20.00
2023-05-31T01:01:34.488Z,21.25
2023-05-31T01:04:04.462Z,19.75
2023-05-31T01:06:33.661Z,22.50
2023-05-31T01:09:05.879Z,18.25
2023-05-31T01:11:52.114Z,25.25
2023-05-31T01:14:47.654Z,20.00
2023-05-31T01:17:24.140Z,17.25
2023-05-31T01:19:55.662Z,20.50
2023-05-31T01:22:29.086Z,17.00
2023-05-31T01:25:16.241Z,23.25
2023-05-31T01:27:43.572Z,23.75
2023-05-31T01:30:11.624Z,21.50
2023-05-31T01:32:40.066Z,21.50
2023-05-31T01:35:07.947Z,18.50
2023-05-31T01:37:35.182Z,27.25
2023-05-31T01:40:03.216Z,20.00
2023-05-31T01:42:30.466Z,23.75
2023-05-31T01:44:58.952Z,17.00
2023-05-31T01:47:27.106Z,25.25
2023-05-31T01:49:55.236Z,27.75
2023-05-31T01:52:22.942Z,26.00
2023-05-31T01:54:51.137Z,24.00
2023-05-31T01:57:18.905Z,27.00
2023-05-31T01:59:47.185Z,27.00
2023-05-31T02:02:15.602Z,21.00
2023-05-31T02:04:43.029Z,18.00
2023-05-31T02:07:10.673Z,27.50
2023-05-31T02:09:38.348Z,19.25
2023-05-31T02:12:05.797Z,26.50
2023-05-31T02:14:33.149Z,25.50
2023-05-31T02:17:00.567Z,22.00
2023-05-31T02:19:30.066Z,20.00
2023-05-31T02:21:57.072Z,19.75
2023-05-31T02:24:24.703Z,21.00
2023-05-31T02:26:51.754Z,23.25
2023-05-31T02:29:19.144Z,21.50
2023-05-31T02:31:46.411Z,17.75
2023-05-31T02:34:13.797Z,26.25
2023-05-31T02:36:41.321Z,20.50
2023-05-31T02:39:09.014Z,19.50
2023-05-31T02:41:36.191Z,16.75
2023-05-31T02:44:03.625Z,27.50
2023-05-31T02:46:31.819Z,23.00
2023-05-31T02:48:59.212Z,26.25
2023-05-31T02:51:26.359Z,23.75
2023-05-31T02:53:53.717Z,36.00
2023-05-31T02:56:22.053Z,23.50
2023-05-31T02:58:50.101Z,28.00
2023-05-31T03:01:17.559Z,28.00
2023-05-31T03:03:44.937Z,26.25
2023-05-31T03:06:13.472Z,25.25
2023-05-31T03:08:41.019Z,35.25
2023-05-31T03:11:08.232Z,30.25
2023-05-31T03:13:35.973Z,36.75
2023-05-31T03:16:03.220Z,32.00
2023-05-31T03:18:30.561Z,27.25
2023-05-31T03:20:57.537Z,26.00
2023-05-31T03:23:24.989Z,25.50
2023-05-31T03:25:52.130Z,33.75
2023-05-31T03:28:19.436Z,32.25
2023-05-31T03:30:46.879Z,28.00
2023-05-31T03:33:14.185Z,23.50
2023-05-31T03:35:41.496Z,23.00
2023-05-31T03:38:09.075Z,30.00
2023-05-31T03:40:36.329Z,26.75
2023-05-31T03:43:03.949Z,28.50
2023-05-31T03:45:30.973Z,17.75
2023-05-31T03:47:58.497Z,21.25
2023-05-31T03:50:25.554Z,26.75
2023-05-31T03:52:53.926Z,21.25
2023-05-31T03:55:21.864Z,19.33
2023-05-31T03:57:49.133Z,19.00
2023-05-31T04:00:16.973Z,17.00
2023-05-31T04:02:52.135Z,14.67
2023-05-31T04:05:30.537Z,2.00
2023-05-31T04:07:57.828Z,20.00
2023-05-31T04:10:24.875Z,20.67
2023-05-31T04:12:52.573Z,20.67
2023-05-31T04:15:20.047Z,18.33
2023-05-31T04:17:47.823Z,16.00
2023-05-31T04:20:15.041Z,20.67
2023-05-31T04:22:42.503Z,19.33
2023-05-31T04:25:14.148Z,16.33
2023-05-31T04:27:42.084Z,18.33
2023-05-31T04:30:09.399Z,18.33
2023-05-31T04:32:37.367Z,19.33
2023-05-31T04:35:05.917Z,25.67
2023-05-31T04:37:35.970Z,15.00
2023-05-31T04:40:06.867Z,20.00
2023-05-31T04:42:34.192Z,21.00
2023-05-31T04:45:02.600Z,17.33
2023-05-31T04:47:29.929Z,20.33
2023-05-31T04:49:58.330Z,23.33
2023-05-31T04:52:35.201Z,19.33
2023-05-31T04:55:02.713Z,22.67
2023-05-31T04:57:32.772Z,25.67
2023-05-31T05:00:00.409Z,20.33
2023-05-31T05:02:28.520Z,24.33
2023-05-31T05:04:55.721Z,24.00
2023-05-31T05:07:23.059Z,20.67
2023-05-31T05:09:50.194Z,14.67
2023-05-31T05:12:17.532Z,22.33
2023-05-31T05:14:45.138Z,21.67
2023-05-31T05:17:12.520Z,18.00
2023-05-31T05:19:39.936Z,18.33
2023-05-31T05:22:08.656Z,23.00
2023-05-31T05:24:35.884Z,17.33
2023-05-31T05:27:03.756Z,18.00
2023-05-31T05:29:30.859Z,20.67
2023-05-31T05:31:58.295Z,13.33
2023-05-31T05:34:25.855Z,22.00
2023-05-31T05:36:54.072Z,15.00
2023-05-31T05:39:21.383Z,16.00
2023-05-31T05:41:49.140Z,17.33
2023-05-31T05:44:16.767Z,21.00
2023-05-31T05:46:44.703Z,19.33
2023-05-31T05:49:12.812Z,18.67
2023-05-31T05:51:40.775Z,22.33
2023-05-31T05:54:08.905Z,16.00
2023-05-31T05:56:36.682Z,15.00
2023-05-31T05:59:05.407Z,17.67
2023-05-31T06:01:35.453Z,18.33
2023-05-31T06:04:03.578Z,19.00
2023-05-31T06:06:33.402Z,16.00
2023-05-31T06:09:00.599Z,12.33
2023-05-31T06:11:28.118Z,11.33
2023-05-31T06:13:58.912Z,10.33
2023-05-31T06:16:27.453Z,12.00
2023-05-31T06:18:54.647Z,9.33
2023-05-31T06:21:22.488Z,11.67
2023-05-31T06:23:49.609Z,10.00
2023-05-31T06:26:17.061Z,6.67
2023-05-31T06:28:44.414Z,12.00
2023-05-31T06:31:12.025Z,8.00
2023-05-31T06:33:41.776Z,8.67
2023-05-31T06:36:09.678Z,13.33
2023-05-31T06:38:37.215Z,8.00
2023-05-31T06:41:06.706Z,9.75
2023-05-31T06:43:33.877Z,9.25
2023-05-31T06:46:01.376Z,8.50
2023-05-31T06:48:28.595Z,8.00
2023-05-31T06:50:56.841Z,8.50
2023-05-31T06:53:24.992Z,9.75
2023-05-31T06:55:52.710Z,12.25
2023-05-31T06:58:19.942Z,12.25
2023-05-31T07:00:48.004Z,7.25
2023-05-31T07:03:15.283Z,7.00
2023-05-31T07:05:45.605Z,10.00
2023-05-31T07:08:16.005Z,9.25
2023-05-31T07:10:45.760Z,9.50
2023-05-31T07:13:12.939Z,11.00
2023-05-31T07:15:40.499Z,7.00
2023-05-31T07:18:08.001Z,7.75
2023-05-31T07:20:35.533Z,5.75
2023-05-31T07:23:02.861Z,6.75
2023-05-31T07:25:30.421Z,5.50
2023-05-31T07:27:57.787Z,5.00
2023-05-31T07:30:26.790Z,5.50
2023-05-31T07:32:53.991Z,7.75
2023-05-31T07:35:22.042Z,8.25
2023-05-31T07:37:49.501Z,7.25
2023-05-31T07:40:18.342Z,9.00
2023-05-31T07:42:45.691Z,6.00
2023-05-31T07:45:13.750Z,8.25
2023-05-31T07:47:41.008Z,7.75
2023-05-31T07:50:09.466Z,8.00
2023-05-31T07:52:36.852Z,7.00
2023-05-31T07:55:05.354Z,5.00
2023-05-31T07:57:33.923Z,5.00
2023-05-31T08:00:01.505Z,4.00
2023-05-31T08:02:28.632Z,3.00
2023-05-31T08:05:01.274Z,3.75
2023-05-31T08:07:28.794Z,4.50
2023-05-31T08:09:56.134Z,7.25
2023-05-31T08:12:26.761Z,8.00
2023-05-31T08:14:55.823Z,4.00
2023-05-31T08:17:23.090Z,6.00
2023-05-31T08:19:50.528Z,4.00
2023-05-31T08:22:18.036Z,3.50
2023-05-31T08:24:45.381Z,4.50
2023-05-31T08:27:13.780Z,3.50
2023-05-31T08:29:41.253Z,3.00
2023-05-31T08:32:08.326Z,4.00
2023-05-31T08:34:35.906Z,4.75
2023-05-31T08:37:04.015Z,5.75
2023-05-31T08:39:32.330Z,4.75
2023-05-31T08:42:09.056Z,4.50
2023-05-31T08:44:37.256Z,6.50
2023-05-31T08:47:14.546Z,2.75
2023-05-31T08:49:43.512Z,4.00
2023-05-31T08:52:10.499Z,4.75
2023-05-31T08:54:38.718Z,2.00
2023-05-31T08:57:07.048Z,4.00
2023-05-31T08:59:35.472Z,3.00
2023-05-31T09:02:03.017Z,2.00
2023-05-31T09:04:30.625Z,2.00
2023-05-31T09:06:58.057Z,1.00
2023-05-31T09:09:26.542Z,4.00
2023-05-31T09:11:54.109Z,3.50
2023-05-31T09:14:21.581Z,3.25
2023-05-31T09:16:51.713Z,2.25
2023-05-31T09:19:19.312Z,3.00
2023-05-31T09:21:46.728Z,1.00
2023-05-31T09:24:16.103Z,1.00
2023-05-31T09:26:54.070Z,1.25
2023-05-31T09:29:23.672Z,4.75
2023-05-31T09:32:08.423Z,3.25
2023-05-31T09:34:36.326Z,4.50
2023-05-31T09:37:05.106Z,4.00
2023-05-31T09:39:33.168Z,2.25
2023-05-31T09:42:00.990Z,3.50
2023-05-31T09:44:31.672Z,3.25
2023-05-31T09:47:08.758Z,6.50
2023-05-31T09:49:36.104Z,2.25
2023-05-31T09:52:03.909Z,2.75
2023-05-31T09:54:31.624Z,3.00
2023-05-31T09:56:58.596Z,3.25
2023-05-31T09:59:26.324Z,4.75
2023-05-31T10:01:55.315Z,3.00
2023-05-31T10:04:23.566Z,2.00
2023-05-31T10:06:51.491Z,3.25
2023-05-31T10:09:19.877Z,4.25
2023-05-31T10:11:51.839Z,0.00
2023-05-31T10:14:31.712Z,2.00
2023-05-31T10:17:00.517Z,3.00
2023-05-31T10:19:32.907Z,6.75
2023-05-31T10:22:02.327Z,3.50
2023-05-31T10:24:46.785Z,3.00
2023-05-31T10:27:21.037Z,4.50
2023-05-31T10:29:53.943Z,4.75
2023-05-31T10:32:21.860Z,3.00
2023-05-31T10:34:49.861Z,3.25
2023-05-31T10:37:17.528Z,3.00
2023-05-31T10:40:06.760Z,4.50
2023-05-31T10:42:59.935Z,2.00
2023-05-31T10:45:31.859Z,5.50
2023-05-31T10:48:24.310Z,3.00
2023-05-31T10:51:03.079Z,5.50
2023-05-31T10:53:31.430Z,3.00
2023-05-31T10:56:15.298Z,5.25
2023-05-31T10:58:53.297Z,3.25
2023-05-31T11:01:26.002Z,1.25
2023-05-31T11:03:54.674Z,5.75
2023-05-31T11:06:32.150Z,4.00
2023-05-31T11:09:00.665Z,4.00
2023-05-31T11:11:48.972Z,3.50
2023-05-31T11:14:30.800Z,6.00
2023-05-31T11:17:14.303Z,2.75
2023-05-31T11:19:43.504Z,3.50
2023-05-31T11:22:14.954Z,3.50
2023-05-31T11:24:54.442Z,6.00
2023-05-31T11:27:41.204Z,6.00
2023-05-31T11:30:14.600Z,4.00
2023-05-31T11:32:41.881Z,3.75
2023-05-31T11:35:12.457Z,5.00
2023-05-31T11:37:41.607Z,5.00
2023-05-31T11:40:14.306Z,5.00
2023-05-31T11:42:44.830Z,3.50
2023-05-31T11:45:11.979Z,4.00
2023-05-31T11:47:45.798Z,4.50
2023-05-31T11:50:14.901Z,3.50
2023-05-31T11:52:42.442Z,3.50
2023-05-31T11:55:12.853Z,4.75
2023-05-31T11:57:42.979Z,3.50
2023-05-31T12:00:13.454Z,7.25
2023-05-31T12:02:41.616Z,4.25
2023-05-31T12:05:16.800Z,7.00
2023-05-31T12:07:45.723Z,1.75
2023-05-31T12:10:13.569Z,4.25
2023-05-31T12:12:41.977Z,4.50
2023-05-31T12:15:13.518Z,7.50
2023-05-31T12:17:41.523Z,6.00
2023-05-31T12:20:09.416Z,2.25
2023-05-31T12:22:37.571Z,3.75
2023-05-31T12:25:04.973Z,6.00
2023-05-31T12:27:44.583Z,3.50
2023-05-31T12:30:19.569Z,5.25
2023-05-31T12:32:48.354Z,4.00
2023-05-31T12:35:16.420Z,5.00
2023-05-31T12:37:43.760Z,4.00
2023-05-31T12:40:12.959Z,5.25
2023-05-31T12:42:40.830Z,7.25
2023-05-31T12:45:08.697Z,6.50
2023-05-31T12:47:37.064Z,4.00
2023-05-31T12:50:06.670Z,7.75
2023-05-31T12:52:35.176Z,7.00
2023-05-31T12:55:05.893Z,4.50
2023-05-31T12:57:36.224Z,5.25
2023-05-31T13:00:13.079Z,2.00
2023-05-31T13:02:41.514Z,8.00
2023-05-31T13:05:09.398Z,5.75
2023-05-31T13:07:37.687Z,4.00
2023-05-31T13:10:09.564Z,5.75
2023-05-31T13:12:39.848Z,5.25
2023-05-31T13:15:08.143Z,5.00
2023-05-31T13:17:35.836Z,6.50
2023-05-31T13:22:33.745Z,3.00
2023-05-31T13:25:01.076Z,4.25
2023-05-31T13:27:28.789Z,6.50
2023-05-31T13:29:56.778Z,5.00
2023-05-31T13:32:24.436Z,4.50
2023-05-31T13:34:53.970Z,2.00
2023-05-31T13:37:23.118Z,4.00
2023-05-31T13:39:50.423Z,6.50
2023-05-31T13:42:18.198Z,3.50
2023-05-31T13:44:45.305Z,6.00
2023-05-31T13:47:14.765Z,4.25
2023-05-31T13:49:42.130Z,5.50
2023-05-31T13:52:11.538Z,5.00
2023-05-31T13:54:39.329Z,3.25
2023-05-31T13:57:07.152Z,5.50
2023-05-31T13:59:34.990Z,5.50
2023-05-31T14:02:02.591Z,4.50
2023-05-31T14:04:29.898Z,5.25
2023-05-31T14:06:57.245Z,3.00
2023-05-31T14:09:24.725Z,5.25
2023-05-31T14:11:53.104Z,4.00
2023-05-31T14:14:20.764Z,6.75
2023-05-31T14:16:48.669Z,5.00
2023-05-31T14:19:16.179Z,4.00
2023-05-31T14:21:43.904Z,3.50
2023-05-31T14:24:11.790Z,6.50
2023-05-31T14:26:40.046Z,5.75
2023-05-31T14:29:07.244Z,4.00
2023-05-31T14:31:35.160Z,4.00
2023-05-31T14:34:02.376Z,2.00
2023-05-31T14:36:30.212Z,5.50
2023-05-31T14:38:57.636Z,2.75
2023-05-31T14:41:27.492Z,5.75
2023-05-31T14:43:54.586Z,4.25
2023-05-31T14:46:22.145Z,4.00
2023-05-31T14:48:49.834Z,5.50
2023-05-31T14:51:17.258Z,3.50
2023-05-31T14:53:44.309Z,5.00
2023-05-31T14:58:44.143Z,2.75
2023-05-31T15:01:11.524Z,6.50
2023-05-31T15:03:38.855Z,4.25
2023-05-31T15:06:06.562Z,5.50
2023-05-31T15:08:35.235Z,9.00
2023-05-31T15:11:03.256Z,3.75
2023-05-31T15:13:30.923Z,2.75
2023-05-31T15:16:00.147Z,4.50
2023-05-31T15:18:28.491Z,8.75
2023-05-31T15:20:56.148Z,3.00
2023-05-31T15:23:23.475Z,5.75
2023-05-31T15:25:50.999Z,3.25
2023-05-31T15:28:18.286Z,3.75
2023-05-31T15:30:46.137Z,6.75
2023-05-31T15:33:13.575Z,4.00
2023-05-31T15:35:41.307Z,3.50
2023-05-31T15:38:08.404Z,2.25
2023-05-31T15:40:36.265Z,3.50
2023-05-31T15:43:03.675Z,5.00
2023-05-31T15:45:31.210Z,4.25
2023-05-31T15:47:58.849Z,4.00
2023-05-31T15:50:26.357Z,7.75
2023-05-31T15:52:53.501Z,5.50
2023-05-31T15:55:21.826Z,3.00
2023-05-31T15:57:48.897Z,4.00
2023-05-31T16:00:17.883Z,3.67
2023-05-31T16:02:45.534Z,5.67
2023-05-31T16:05:13.848Z,5.75
2023-05-31T16:07:41.356Z,4.00
2023-05-31T16:10:09.380Z,4.00
2023-05-31T16:12:36.526Z,5.50
2023-05-31T16:15:04.684Z,7.50
2023-05-31T16:17:31.950Z,6.75
2023-05-31T16:19:59.595Z,6.00
2023-05-31T16:22:26.894Z,4.25
2023-05-31T16:24:54.439Z,5.50
2023-05-31T16:27:21.490Z,6.50
2023-05-31T16:29:49.046Z,4.75
2023-05-31T16:32:16.367Z,2.50
2023-05-31T16:34:43.928Z,5.25
2023-05-31T16:37:10.999Z,4.75
2023-05-31T16:39:38.619Z,6.50
2023-05-31T16:42:07.919Z,5.75
2023-05-31T16:44:36.287Z,5.25
2023-05-31T16:47:03.892Z,5.00
2023-05-31T16:49:31.314Z,5.00
2023-05-31T16:51:58.356Z,6.00
2023-05-31T16:54:26.244Z,6.25
2023-05-31T16:56:53.300Z,6.50
2023-05-31T16:59:20.679Z,4.75
2023-05-31T17:01:47.820Z,6.00
2023-05-31T17:04:15.180Z,4.50
2023-05-31T17:06:42.476Z,5.00
2023-05-31T17:09:10.460Z,6.00
2023-05-31T17:11:39.424Z,7.00
2023-05-31T17:14:06.738Z,5.50
2023-05-31T17:16:34.491Z,4.50
2023-05-31T17:19:01.837Z,6.50
2023-05-31T17:21:30.381Z,5.75
2023-05-31T17:23:57.874Z,3.75
2023-05-31T17:26:24.896Z,5.00
2023-05-31T17:28:52.185Z,6.33
2023-05-31T17:31:19.660Z,5.33
2023-05-31T17:33:47.135Z,6.67
2023-05-31T17:36:14.366Z,6.00
2023-05-31T17:38:42.358Z,6.00
2023-05-31T17:41:10.401Z,5.50
2023-05-31T17:43:38.993Z,6.00
2023-05-31T17:46:06.565Z,6.75
2023-05-31T17:48:33.939Z,9.75
2023-05-31T17:51:01.386Z,8.25
2023-05-31T17:53:29.894Z,6.25
2023-05-31T17:55:57.464Z,6.50
2023-05-31T17:58:28.482Z,7.75
2023-05-31T18:00:55.995Z,8.25
2023-05-31T18:03:27.202Z,7.25
2023-05-31T18:05:57.645Z,8.75
2023-05-31T18:08:26.782Z,8.00
2023-05-31T18:10:53.957Z,9.50
2023-05-31T18:13:21.505Z,8.25
2023-05-31T18:15:48.838Z,7.00
2023-05-31T18:18:18.608Z,10.00
2023-05-31T18:20:46.564Z,11.00
2023-05-31T18:23:14.032Z,6.50
2023-05-31T18:25:41.363Z,8.00
2023-05-31T18:28:09.341Z,7.50
2023-05-31T18:30:36.617Z,8.75
2023-05-31T18:33:04.546Z,10.75
2023-05-31T18:35:32.019Z,5.75
2023-05-31T18:37:59.666Z,8.25
2023-05-31T18:40:27.998Z,8.50
2023-05-31T18:42:55.566Z,10.25
2023-05-31T18:45:25.061Z,13.75
2023-05-31T18:47:53.980Z,10.50
2023-05-31T18:50:21.433Z,8.75
2023-05-31T18:52:49.551Z,9.75
2023-05-31T18:55:16.936Z,19.75
2023-05-31T18:57:45.447Z,10.00
2023-05-31T19:00:13.718Z,13.25
2023-05-31T19:02:42.167Z,13.50
2023-05-31T19:05:10.791Z,13.00
2023-05-31T19:07:39.164Z,13.00
2023-05-31T19:10:07.353Z,12.00
2023-05-31T19:12:35.660Z,11.75
2023-05-31T19:15:03.680Z,14.00
2023-05-31T19:17:32.888Z,14.67
2023-05-31T19:20:00.223Z,18.33
2023-05-31T19:22:42.596Z,18.00
2023-05-31T19:25:09.807Z,20.00
2023-05-31T19:27:37.587Z,13.33
2023-05-31T19:30:04.993Z,14.00
2023-05-31T19:32:32.698Z,17.00
2023-05-31T19:35:00.308Z,17.00
2023-05-31T19:37:27.899Z,16.33
2023-05-31T19:39:55.022Z,16.00
2023-05-31T19:42:23.148Z,17.00
2023-05-31T19:44:50.561Z,14.67
2023-05-31T19:47:18.069Z,12.33
2023-05-31T19:49:46.229Z,18.67
2023-05-31T19:52:14.967Z,15.00
2023-05-31T19:54:42.780Z,15.67
2023-05-31T19:57:10.814Z,17.00
2023-05-31T19:59:38.097Z,16.00
2023-05-31T20:02:06.242Z,20.00
2023-05-31T20:04:34.432Z,18.67
2023-05-31T20:07:02.881Z,22.33
2023-05-31T20:09:30.949Z,23.00
2023-05-31T20:11:59.663Z,24.00
2023-05-31T20:14:27.674Z,21.33
2023-05-31T20:16:55.300Z,18.67
2023-05-31T20:19:23.665Z,24.00
2023-05-31T20:21:52.655Z,21.67
2023-05-31T20:24:21.787Z,19.33
2023-05-31T20:26:49.864Z,15.00
2023-05-31T20:29:17.654Z,13.33
2023-05-31T20:31:45.226Z,22.67
2023-05-31T20:34:12.565Z,26.00
2023-05-31T20:36:42.495Z,25.00
2023-05-31T20:39:10.217Z,23.67
2023-05-31T20:41:37.712Z,28.33
2023-05-31T20:44:06.481Z,22.00
2023-05-31T20:46:34.217Z,29.00
2023-05-31T20:49:01.650Z,21.00
2023-05-31T20:51:29.121Z,22.67
2023-05-31T20:53:56.649Z,23.00
2023-05-31T20:56:24.880Z,19.00
2023-05-31T20:58:52.461Z,19.00
2023-05-31T21:01:20.329Z,22.67
2023-05-31T21:03:47.712Z,21.33
2023-05-31T21:06:16.240Z,25.67
2023-05-31T21:08:43.322Z,23.00
2023-05-31T21:11:11.107Z,24.00
2023-05-31T21:13:38.218Z,29.00
2023-05-31T21:16:05.864Z,30.00
2023-05-31T21:18:32.928Z,23.33
2023-05-31T21:21:01.299Z,22.00
2023-05-31T21:23:28.544Z,26.67
2023-05-31T21:25:56.432Z,22.33
2023-05-31T21:28:23.533Z,27.67
2023-05-31T21:30:51.320Z,24.00
2023-05-31T21:33:18.928Z,26.33
2023-05-31T21:35:47.188Z,18.33
2023-05-31T21:38:14.444Z,18.00
2023-05-31T21:40:42.390Z,25.00
2023-05-31T21:43:09.412Z,23.00
2023-05-31T21:45:36.833Z,23.33
2023-05-31T21:48:03.885Z,19.33
2023-05-31T21:50:31.814Z,22.67
2023-05-31T21:52:58.749Z,11.00
2023-05-31T21:55:26.214Z,19.00
2023-05-31T21:57:53.293Z,18.33
2023-05-31T22:00:21.232Z,20.00
2023-05-31T22:02:48.363Z,23.67
2023-05-31T22:05:16.153Z,20.33
2023-05-31T22:07:43.242Z,18.33
2023-05-31T22:10:11.022Z,27.33
2023-05-31T22:12:38.206Z,17.67
2023-05-31T22:15:07.322Z,15.67
2023-05-31T22:17:35.230Z,16.33
2023-05-31T22:20:03.803Z,16.33
2023-05-31T22:22:31.562Z,24.33
2023-05-31T22:25:09.394Z,17.67
2023-05-31T22:27:41.240Z,21.00
2023-05-31T22:30:09.143Z,16.67
2023-05-31T22:32:36.724Z,24.33
2023-05-31T22:35:04.743Z,18.33
2023-05-31T22:37:32.665Z,24.00
2023-05-31T22:40:00.260Z,28.00
2023-05-31T22:42:27.618Z,15.33
2023-05-31T22:44:57.627Z,22.00
2023-05-31T22:47:25.756Z,24.33
2023-05-31T22:49:54.804Z,19.00
2023-05-31T22:52:23.632Z,23.00
2023-05-31T22:54:51.082Z,24.67
2023-05-31T22:57:18.633Z,16.67
2023-05-31T22:59:45.751Z,21.67
2023-05-31T23:02:13.169Z,27.33
2023-05-31T23:04:40.308Z,20.67
2023-05-31T23:07:07.588Z,21.67
2023-05-31T23:09:35.176Z,21.67
2023-05-31T23:12:04.039Z,23.33
2023-05-31T23:14:31.174Z,16.33
2023-05-31T23:17:02.948Z,23.33
2023-05-31T23:19:30.066Z,24.00
2023-05-31T23:21:57.541Z,23.67
2023-05-31T23:24:24.478Z,26.50
2023-05-31T23:26:52.156Z,20.33
2023-05-31T23:29:19.243Z,19.00
2023-05-31T23:31:46.743Z,22.00
2023-05-31T23:34:15.479Z,24.25
2023-05-31T23:36:42.867Z,21.33
2023-05-31T23:39:11.647Z,22.00
2023-05-31T23:41:42.574Z,25.00
2023-05-31T23:44:09.553Z,23.00
2023-05-31T23:46:36.904Z,24.00
2023-05-31T23:49:04.222Z,19.00
2023-05-31T23:51:31.631Z,23.00
2023-05-31T23:53:58.779Z,18.67
2023-05-31T23:56:27.239Z,20.00
2023-05-31T23:58:54.200Z,23.25
